createdAt,value
2022-10-08T00:01:30.951Z,70.30
2022-10-08T00:04:00.439Z,70.30
2022-10-08T00:06:30.991Z,70.03
2022-10-08T00:09:03.181Z,70.23
2022-10-08T00:11:33.843Z,70.33
2022-10-08T00:14:02.699Z,70.43
2022-10-08T00:16:33.353Z,69.77
2022-10-08T00:19:06.538Z,69.90
2022-10-08T00:21:37.105Z,69.67
2022-10-08T00:24:07.532Z,69.70
2022-10-08T00:26:43.383Z,70.11
2022-10-08T00:29:14.524Z,69.52
2022-10-08T00:31:46.070Z,69.63
2022-10-08T00:34:18.239Z,69.44
2022-10-08T00:36:47.356Z,69.87
2022-10-08T00:39:17.709Z,70.03
2022-10-08T00:41:49.175Z,70.03
2022-10-08T00:44:54.728Z,70.03
2022-10-08T00:47:45.350Z,70.05
2022-10-08T00:50:20.447Z,70.41
2022-10-08T00:52:53.315Z,70.17
2022-10-08T00:55:24.611Z,70.39
2022-10-08T00:57:53.185Z,70.76
2022-10-08T01:00:25.109Z,70.99
2022-10-08T01:02:53.649Z,70.68
2022-10-08T01:05:35.036Z,70.80
2022-10-08T01:08:13.738Z,70.20
2022-10-08T01:10:52.634Z,70.40
2022-10-08T01:13:35.108Z,70.45
2022-10-08T01:16:14.579Z,70.67
2022-10-08T01:18:51.917Z,70.74
2022-10-08T01:21:36.679Z,70.59
2022-10-08T01:24:48.412Z,70.70
2022-10-08T01:27:26.282Z,70.54
2022-10-08T01:29:56.040Z,70.53
2022-10-08T01:32:30.793Z,70.38
2022-10-08T01:35:03.738Z,70.60
2022-10-08T01:37:36.476Z,70.76
2022-10-08T01:40:12.385Z,70.34
2022-10-08T01:42:42.709Z,70.89
2022-10-08T01:45:16.197Z,70.59
2022-10-08T01:47:46.921Z,70.52
2022-10-08T01:50:22.615Z,70.29
2022-10-08T01:52:55.596Z,70.15
2022-10-08T01:55:29.786Z,70.51
2022-10-08T01:58:05.091Z,70.36
2022-10-08T02:00:34.963Z,70.54
2022-10-08T02:03:04.116Z,70.36
2022-10-08T02:05:37.007Z,70.24
2022-10-08T02:08:05.547Z,70.21
2022-10-08T02:10:33.871Z,70.63
2022-10-08T02:13:03.673Z,70.49
2022-10-08T02:15:44.327Z,70.18
2022-10-08T02:18:18.262Z,70.59
2022-10-08T02:20:54.224Z,70.74
2022-10-08T02:23:26.422Z,70.54
2022-10-08T02:25:59.814Z,69.95
2022-10-08T02:28:39.517Z,69.87
2022-10-08T02:31:13.630Z,70.08
2022-10-08T02:33:50.053Z,69.84
2022-10-08T02:36:26.394Z,69.92
2022-10-08T02:38:57.571Z,70.01
2022-10-08T02:41:31.793Z,70.38
2022-10-08T02:44:06.617Z,70.56
2022-10-08T02:46:41.179Z,70.45
2022-10-08T02:49:14.951Z,69.81
2022-10-08T02:51:49.190Z,70.46
2022-10-08T02:54:19.801Z,71.19
2022-10-08T02:56:55.579Z,70.51
2022-10-08T02:59:26.585Z,70.71
2022-10-08T03:02:00.207Z,70.55
2022-10-08T03:04:36.161Z,70.36
2022-10-08T03:07:05.155Z,70.44
2022-10-08T03:09:37.643Z,70.29
2022-10-08T03:12:07.065Z,70.48
2022-10-08T03:14:39.817Z,70.23
2022-10-08T03:17:08.923Z,71.02
2022-10-08T03:19:37.117Z,70.84
2022-10-08T03:22:05.398Z,70.78
2022-10-08T03:24:33.430Z,71.13
2022-10-08T03:27:01.479Z,71.14
2022-10-08T03:29:29.481Z,70.76
2022-10-08T03:31:58.870Z,71.00
2022-10-08T03:34:27.394Z,71.08
2022-10-08T03:36:55.449Z,70.82
2022-10-08T03:39:23.470Z,70.85
2022-10-08T03:41:51.518Z,71.01
2022-10-08T03:44:19.561Z,71.13
2022-10-08T03:46:47.627Z,71.08
2022-10-08T03:49:17.258Z,70.75
2022-10-08T03:51:45.302Z,70.87
2022-10-08T03:54:13.384Z,70.87
2022-10-08T03:56:41.500Z,70.67
2022-10-08T03:59:09.610Z,70.89
2022-10-08T04:01:38.181Z,71.16
2022-10-08T04:04:06.251Z,70.90
2022-10-08T04:06:35.630Z,71.05
2022-10-08T04:09:03.678Z,70.80
2022-10-08T04:11:31.734Z,70.44
2022-10-08T04:14:01.373Z,70.20
2022-10-08T04:16:29.399Z,70.02
2022-10-08T04:18:57.431Z,70.19
2022-10-08T04:21:25.478Z,70.42
2022-10-08T04:23:54.839Z,70.13
2022-10-08T04:26:22.992Z,70.31
2022-10-08T04:28:51.088Z,70.22
2022-10-08T04:31:21.851Z,69.76
2022-10-08T04:33:51.443Z,70.21
2022-10-08T04:36:21.500Z,70.58
2022-10-08T04:38:50.237Z,71.13
2022-10-08T04:41:23.140Z,71.16
2022-10-08T04:43:52.288Z,70.63
2022-10-08T04:46:23.020Z,70.83
2022-10-08T04:48:53.494Z,70.52
2022-10-08T04:51:23.652Z,70.24
2022-10-08T04:53:53.084Z,70.29
2022-10-08T04:56:25.524Z,70.42
2022-10-08T04:58:55.043Z,70.47
2022-10-08T05:01:24.220Z,70.39
2022-10-08T05:03:55.191Z,70.29
2022-10-08T05:06:26.950Z,70.75
2022-10-08T05:08:55.499Z,70.36
2022-10-08T05:11:28.253Z,70.38
2022-10-08T05:13:58.651Z,70.29
2022-10-08T05:16:28.038Z,70.24
2022-10-08T05:18:56.726Z,70.27
2022-10-08T05:21:28.017Z,69.69
2022-10-08T05:23:59.785Z,69.56
2022-10-08T05:29:20.530Z,69.47
2022-10-08T05:31:48.540Z,69.56
2022-10-08T05:34:16.671Z,69.66
2022-10-08T05:36:45.050Z,69.44
2022-10-08T05:39:13.070Z,69.70
2022-10-08T05:41:43.296Z,69.82
2022-10-08T05:44:14.161Z,69.53
2022-10-08T05:46:42.300Z,69.64
2022-10-08T05:49:19.805Z,68.90
2022-10-08T05:51:48.177Z,68.98
2022-10-08T05:54:17.147Z,69.26
2022-10-08T05:56:46.559Z,69.22
2022-10-08T05:59:19.378Z,69.34
2022-10-08T06:01:47.881Z,70.08
2022-10-08T06:04:15.882Z,69.43
2022-10-08T06:06:44.577Z,69.84
2022-10-08T06:09:15.434Z,69.54
2022-10-08T06:11:43.910Z,69.77
2022-10-08T06:14:16.715Z,69.56
2022-10-08T06:16:44.986Z,70.33
2022-10-08T06:19:13.198Z,70.20
2022-10-08T06:21:41.290Z,69.84
2022-10-08T06:24:12.661Z,69.63
2022-10-08T06:26:43.458Z,69.73
2022-10-08T06:29:16.912Z,69.33
2022-10-08T06:31:46.164Z,69.66
2022-10-08T06:34:14.303Z,69.59
2022-10-08T06:36:42.835Z,69.73
2022-10-08T06:39:13.812Z,69.65
2022-10-08T06:41:42.383Z,69.64
2022-10-08T06:44:15.710Z,69.65
2022-10-08T06:46:44.242Z,69.89
2022-10-08T06:49:13.313Z,69.53
2022-10-08T06:51:41.545Z,69.57
2022-10-08T06:54:09.677Z,69.60
2022-10-08T06:56:39.481Z,69.41
2022-10-08T06:59:08.606Z,69.39
2022-10-08T07:01:38.118Z,69.63
2022-10-08T07:04:07.254Z,69.50
2022-10-08T07:06:36.066Z,69.54
2022-10-08T07:09:06.790Z,69.07
2022-10-08T07:11:35.036Z,69.36
2022-10-08T07:14:03.246Z,69.06
2022-10-08T07:16:31.614Z,68.39
2022-10-08T07:19:01.130Z,68.17
2022-10-08T07:21:31.126Z,68.11
2022-10-08T07:24:01.652Z,68.04
2022-10-08T07:26:32.401Z,67.72
2022-10-08T07:29:03.264Z,66.52
2022-10-08T07:31:34.479Z,66.72
2022-10-08T07:34:07.601Z,65.52
2022-10-08T07:36:36.212Z,64.29
2022-10-08T07:39:07.502Z,63.67
2022-10-08T07:41:36.252Z,62.75
2022-10-08T07:44:09.475Z,62.19
2022-10-08T07:46:39.095Z,61.62
2022-10-08T07:49:08.531Z,60.85
2022-10-08T07:51:36.869Z,60.51
2022-10-08T07:54:07.580Z,60.62
2022-10-08T07:56:37.628Z,60.07
2022-10-08T07:59:07.095Z,59.73
2022-10-08T08:01:36.151Z,59.75
2022-10-08T08:04:07.171Z,59.61
2022-10-08T08:06:43.050Z,59.41
2022-10-08T08:09:12.037Z,59.21
2022-10-08T08:11:41.007Z,59.06
2022-10-08T08:14:09.285Z,59.06
2022-10-08T08:16:37.430Z,58.33
2022-10-08T08:19:05.624Z,58.37
2022-10-08T08:21:39.063Z,57.80
2022-10-08T08:24:10.957Z,57.02
2022-10-08T08:26:41.750Z,56.07
2022-10-08T08:29:12.937Z,54.65
2022-10-08T08:31:43.694Z,55.17
2022-10-08T08:34:14.977Z,55.41
2022-10-08T08:36:48.650Z,56.76
2022-10-08T08:39:19.080Z,56.43
2022-10-08T08:42:03.805Z,54.86
2022-10-08T08:44:35.662Z,56.60
2022-10-08T08:47:12.035Z,55.86
2022-10-08T08:49:45.894Z,55.31
2022-10-08T08:52:18.841Z,56.00
2022-10-08T08:54:49.297Z,56.39
2022-10-08T08:57:36.571Z,56.57
2022-10-08T09:00:13.030Z,56.44
2022-10-08T09:02:53.274Z,55.93
2022-10-08T09:05:26.093Z,55.73
2022-10-08T09:08:02.187Z,55.42
2022-10-08T09:10:42.245Z,54.63
2022-10-08T09:13:18.793Z,54.43
2022-10-08T09:15:47.281Z,54.49
2022-10-08T09:18:17.022Z,55.27
2022-10-08T09:20:45.740Z,54.51
2022-10-08T09:23:18.904Z,52.97
2022-10-08T09:25:54.061Z,52.79
2022-10-08T09:28:43.175Z,53.30
2022-10-08T09:31:21.042Z,53.39
2022-10-08T09:33:58.991Z,53.10
2022-10-08T09:36:38.018Z,53.17
2022-10-08T09:39:19.250Z,53.47
2022-10-08T09:41:59.426Z,52.08
2022-10-08T09:44:27.577Z,52.33
2022-10-08T09:47:08.950Z,52.07
2022-10-08T09:49:38.886Z,50.97
2022-10-08T09:52:17.171Z,52.35
2022-10-08T09:54:50.529Z,50.53
2022-10-08T09:57:21.826Z,50.49
2022-10-08T09:59:54.576Z,52.21
2022-10-08T10:02:33.445Z,52.06
2022-10-08T10:05:04.193Z,51.48
2022-10-08T10:07:42.313Z,52.16
2022-10-08T10:10:23.438Z,52.16
2022-10-08T10:12:57.515Z,50.81
2022-10-08T10:15:33.527Z,50.88
2022-10-08T10:18:10.069Z,51.47
2022-10-08T10:20:42.566Z,51.49
2022-10-08T10:23:15.897Z,49.86
2022-10-08T10:25:50.590Z,50.54
2022-10-08T10:28:27.622Z,50.98
2022-10-08T10:31:02.882Z,50.24
2022-10-08T10:33:35.994Z,50.66
2022-10-08T10:36:13.071Z,50.48
2022-10-08T10:38:47.700Z,50.63
2022-10-08T10:41:27.164Z,49.64
2022-10-08T10:44:01.859Z,49.12
2022-10-08T10:46:35.379Z,48.84
2022-10-08T10:49:03.854Z,48.28
2022-10-08T10:51:54.345Z,48.70
2022-10-08T10:54:49.348Z,47.91
2022-10-08T10:57:33.049Z,48.43
2022-10-08T11:00:07.138Z,47.67
2022-10-08T11:02:44.144Z,47.69
2022-10-08T11:05:21.452Z,47.49
2022-10-08T11:08:08.081Z,46.95
2022-10-08T11:10:53.719Z,46.96
2022-10-08T11:13:45.308Z,46.20
2022-10-08T11:16:31.033Z,46.09
2022-10-08T11:19:02.013Z,46.68
2022-10-08T11:21:45.372Z,47.03
2022-10-08T11:24:43.459Z,46.70
2022-10-08T11:27:22.998Z,46.87
2022-10-08T11:30:03.898Z,47.76
2022-10-08T11:32:33.450Z,47.47
2022-10-08T11:35:20.935Z,47.28
2022-10-08T11:37:58.498Z,48.65
2022-10-08T11:40:34.568Z,48.41
2022-10-08T11:43:09.647Z,48.41
2022-10-08T11:45:41.121Z,49.28
2022-10-08T11:48:33.804Z,48.51
2022-10-08T11:51:34.919Z,47.67
2022-10-08T11:54:17.546Z,47.96
2022-10-08T11:56:48.791Z,48.41
2022-10-08T11:59:36.485Z,48.33
2022-10-08T12:02:21.444Z,48.18
2022-10-08T12:04:51.393Z,47.43
2022-10-08T12:07:26.992Z,48.11
2022-10-08T12:10:34.377Z,49.40
2022-10-08T12:13:30.479Z,48.67
2022-10-08T12:16:05.066Z,48.20
2022-10-08T12:18:44.715Z,49.85
2022-10-08T12:21:52.018Z,49.17
2022-10-08T12:24:54.071Z,48.73
2022-10-08T12:27:28.304Z,48.24
2022-10-08T12:29:59.536Z,47.74
2022-10-08T12:32:29.829Z,47.98
2022-10-08T12:35:00.233Z,48.02
2022-10-08T12:37:56.307Z,47.88
2022-10-08T12:40:35.417Z,48.39
2022-10-08T12:43:21.318Z,49.37
2022-10-08T12:46:02.177Z,48.67
2022-10-08T12:48:44.039Z,47.25
2022-10-08T12:51:25.958Z,47.12
2022-10-08T12:53:54.891Z,47.85
2022-10-08T12:56:28.029Z,46.98
2022-10-08T12:58:59.597Z,47.38
2022-10-08T13:01:28.166Z,48.24
2022-10-08T13:04:19.117Z,48.56
2022-10-08T13:06:49.890Z,48.03
2022-10-08T13:09:28.204Z,47.68
2022-10-08T13:12:02.918Z,47.03
2022-10-08T13:14:33.933Z,46.47
2022-10-08T13:17:02.519Z,46.47
2022-10-08T13:19:34.078Z,47.27
2022-10-08T13:22:07.888Z,47.70
2022-10-08T13:24:41.376Z,47.52
2022-10-08T13:27:26.123Z,48.08
2022-10-08T13:29:54.963Z,48.40
2022-10-08T13:32:25.663Z,49.31
2022-10-08T13:34:57.346Z,49.53
2022-10-08T13:37:30.795Z,49.76
2022-10-08T13:40:01.119Z,50.02
2022-10-08T13:42:32.345Z,49.99
2022-10-08T13:45:02.631Z,50.11
2022-10-08T13:47:30.752Z,49.67
2022-10-08T13:50:02.300Z,50.49
2022-10-08T13:52:35.048Z,50.47
2022-10-08T13:55:07.551Z,50.08
2022-10-08T13:57:35.584Z,49.85
2022-10-08T14:00:05.370Z,50.58
2022-10-08T14:02:33.446Z,49.27
2022-10-08T14:05:01.453Z,48.94
2022-10-08T14:07:33.978Z,49.51
2022-10-08T14:10:02.965Z,48.96
2022-10-08T14:12:34.564Z,48.86
2022-10-08T14:15:03.014Z,48.75
2022-10-08T14:17:32.498Z,49.56
2022-10-08T14:20:00.625Z,49.38
2022-10-08T14:22:28.735Z,49.42
2022-10-08T14:24:58.096Z,49.56
2022-10-08T14:27:26.089Z,49.00
2022-10-08T14:29:54.411Z,49.29
2022-10-08T14:32:22.401Z,50.17
2022-10-08T14:34:50.626Z,49.77
2022-10-08T14:37:18.719Z,50.21
2022-10-08T14:39:46.769Z,49.86
2022-10-08T14:42:16.194Z,49.58
2022-10-08T14:44:44.240Z,48.42
2022-10-08T14:47:12.238Z,48.85
2022-10-08T14:49:41.125Z,47.92
2022-10-08T14:52:09.158Z,47.67
2022-10-08T14:54:37.205Z,47.72
2022-10-08T14:57:05.490Z,48.25
2022-10-08T14:59:39.713Z,49.00
2022-10-08T15:02:10.625Z,48.91
2022-10-08T15:04:38.859Z,49.37
2022-10-08T15:07:07.378Z,49.67
2022-10-08T15:09:37.164Z,49.83
2022-10-08T15:12:05.269Z,49.59
2022-10-08T15:14:38.223Z,50.51
2022-10-08T15:17:06.629Z,50.35
2022-10-08T15:19:34.762Z,50.39
2022-10-08T15:22:02.839Z,61.74
2022-10-08T15:24:30.938Z,59.00
2022-10-08T15:26:59.050Z,58.07
2022-10-08T15:29:27.051Z,57.58
2022-10-08T15:31:56.479Z,52.79
2022-10-08T15:34:24.606Z,53.62
2022-10-08T15:36:55.691Z,46.29
2022-10-08T15:39:24.400Z,46.57
2022-10-08T15:41:53.463Z,47.28
2022-10-08T15:44:24.742Z,48.21
2022-10-08T15:47:01.908Z,50.49
2022-10-08T15:49:35.985Z,50.42
2022-10-08T15:52:05.975Z,50.38
2022-10-08T15:54:36.285Z,50.27
2022-10-08T15:57:06.507Z,50.96
2022-10-08T15:59:34.627Z,51.57
2022-10-08T16:02:04.680Z,51.62
2022-10-08T16:04:32.763Z,51.53
2022-10-08T16:07:01.390Z,51.87
2022-10-08T16:09:29.730Z,52.55
2022-10-08T16:11:57.736Z,52.58
2022-10-08T16:14:27.705Z,53.19
2022-10-08T16:16:56.250Z,53.04
2022-10-08T16:19:27.850Z,53.48
2022-10-08T16:21:58.159Z,53.95
2022-10-08T16:24:26.691Z,54.53
2022-10-08T16:26:54.720Z,54.79
2022-10-08T16:29:22.736Z,54.72
2022-10-08T16:31:50.714Z,55.31
2022-10-08T16:34:21.613Z,55.60
2022-10-08T16:36:51.742Z,55.63
2022-10-08T16:39:24.179Z,55.46
2022-10-08T16:41:52.571Z,55.31
2022-10-08T16:44:22.359Z,55.02
2022-10-08T16:46:52.754Z,55.60
2022-10-08T16:49:25.539Z,55.78
2022-10-08T16:51:58.118Z,55.94
2022-10-08T16:54:27.405Z,56.27
2022-10-08T16:56:55.511Z,56.16
2022-10-08T16:59:26.341Z,56.61
2022-10-08T17:01:57.049Z,56.94
2022-10-08T17:04:27.649Z,56.79
2022-10-08T17:06:57.593Z,56.97
2022-10-08T17:09:25.601Z,57.06
2022-10-08T17:11:53.625Z,57.03
2022-10-08T17:14:21.709Z,57.21
2022-10-08T17:16:50.691Z,57.31
2022-10-08T17:19:20.351Z,57.66
2022-10-08T17:21:48.600Z,58.16
2022-10-08T17:24:17.966Z,58.67
2022-10-08T17:26:45.954Z,58.51
2022-10-08T17:29:14.013Z,58.88
2022-10-08T17:31:42.872Z,59.31
2022-10-08T17:34:12.032Z,58.97
2022-10-08T17:36:44.032Z,59.03
2022-10-08T17:39:14.690Z,59.52
2022-10-08T17:41:44.706Z,59.20
2022-10-08T17:44:13.392Z,59.82
2022-10-08T17:46:45.636Z,60.19
2022-10-08T17:49:16.370Z,60.31
2022-10-08T17:51:45.648Z,59.89
2022-10-08T17:54:19.003Z,59.97
2022-10-08T17:56:49.067Z,60.58
2022-10-08T17:59:19.009Z,60.75
2022-10-08T18:01:47.510Z,60.91
2022-10-08T18:04:18.108Z,60.91
2022-10-08T18:06:48.052Z,60.76
2022-10-08T18:09:19.317Z,61.05
2022-10-08T18:11:52.388Z,61.92
2022-10-08T18:14:21.905Z,61.60
2022-10-08T18:16:49.998Z,62.23
2022-10-08T18:19:19.422Z,62.56
2022-10-08T18:21:47.612Z,62.40
2022-10-08T18:24:16.967Z,62.41
2022-10-08T18:26:45.659Z,62.24
2022-10-08T18:29:16.338Z,62.78
2022-10-08T18:31:46.426Z,62.42
2022-10-08T18:34:16.696Z,62.54
2022-10-08T18:36:45.077Z,62.60
2022-10-08T18:39:15.526Z,62.43
2022-10-08T18:41:46.202Z,62.45
2022-10-08T18:44:19.105Z,62.07
2022-10-08T18:46:47.313Z,62.22
2022-10-08T18:49:18.218Z,62.23
2022-10-08T18:51:47.352Z,63.05
2022-10-08T18:54:15.407Z,63.29
2022-10-08T18:56:43.473Z,62.93
2022-10-08T18:59:17.181Z,63.50
2022-10-08T19:01:47.712Z,63.20
2022-10-08T19:04:18.956Z,63.06
2022-10-08T19:06:49.407Z,62.91
2022-10-08T19:09:18.134Z,63.10
2022-10-08T19:11:49.297Z,63.10
2022-10-08T19:14:21.024Z,62.72
2022-10-08T19:16:50.440Z,62.81
2022-10-08T19:19:21.097Z,62.87
2022-10-08T19:21:50.005Z,63.29
2022-10-08T19:24:20.237Z,63.94
2022-10-08T19:26:49.444Z,63.67
2022-10-08T19:29:21.731Z,63.75
2022-10-08T19:31:50.403Z,63.86
2022-10-08T19:34:21.775Z,63.85
2022-10-08T19:36:51.014Z,64.04
2022-10-08T19:39:21.967Z,63.57
2022-10-08T19:41:50.874Z,64.41
2022-10-08T19:44:21.189Z,64.37
2022-10-08T19:46:49.784Z,64.12
2022-10-08T19:49:18.278Z,64.03
2022-10-08T19:51:46.870Z,63.81
2022-10-08T19:54:16.156Z,63.58
2022-10-08T19:56:44.585Z,63.57
2022-10-08T19:59:13.384Z,63.54
2022-10-08T20:01:43.674Z,63.47
2022-10-08T20:04:13.943Z,63.16
2022-10-08T20:06:43.673Z,63.82
2022-10-08T20:09:14.168Z,63.24
2022-10-08T20:11:44.498Z,63.73
2022-10-08T20:14:13.681Z,63.86
2022-10-08T20:16:44.395Z,63.94
2022-10-08T20:19:17.036Z,63.92
2022-10-08T20:21:45.375Z,63.69
2022-10-08T20:24:13.542Z,63.56
2022-10-08T20:26:43.825Z,63.50
2022-10-08T20:29:15.480Z,63.31
2022-10-08T20:31:49.165Z,63.46
2022-10-08T20:34:19.653Z,63.31
2022-10-08T20:36:51.234Z,63.66
2022-10-08T20:39:22.033Z,63.42
2022-10-08T20:41:50.265Z,63.49
2022-10-08T20:44:19.285Z,63.47
2022-10-08T20:46:51.551Z,63.86
2022-10-08T20:49:19.892Z,64.10
2022-10-08T20:51:48.007Z,63.70
2022-10-08T20:54:18.529Z,63.89
2022-10-08T20:56:46.881Z,64.02
2022-10-08T20:59:20.362Z,64.29
2022-10-08T21:01:51.024Z,64.10
2022-10-08T21:04:20.004Z,63.96
2022-10-08T21:06:50.467Z,64.02
2022-10-08T21:09:22.044Z,64.20
2022-10-08T21:11:50.229Z,64.05
2022-10-08T21:14:22.400Z,64.05
2022-10-08T21:16:53.411Z,64.28
2022-10-08T21:19:23.088Z,64.15
2022-10-08T21:21:52.136Z,64.06
2022-10-08T21:24:20.321Z,64.15
2022-10-08T21:26:48.451Z,64.19
2022-10-08T21:29:16.667Z,64.30
2022-10-08T21:31:44.977Z,63.62
2022-10-08T21:34:14.530Z,63.78
2022-10-08T21:36:44.523Z,64.08
2022-10-08T21:39:17.609Z,63.88
2022-10-08T21:41:46.822Z,64.33
2022-10-08T21:44:15.330Z,64.65
2022-10-08T21:46:44.027Z,64.36
2022-10-08T21:49:16.338Z,64.18
2022-10-08T21:51:44.750Z,64.16
2022-10-08T21:54:13.474Z,64.01
2022-10-08T21:56:43.460Z,64.10
2022-10-08T21:59:14.340Z,64.21
2022-10-08T22:01:44.825Z,63.99
2022-10-08T22:04:16.826Z,64.23
2022-10-08T22:06:47.393Z,63.94
2022-10-08T22:09:18.269Z,64.37
2022-10-08T22:11:46.849Z,64.06
2022-10-08T22:14:15.522Z,63.93
2022-10-08T22:16:43.661Z,63.96
2022-10-08T22:19:12.129Z,63.71
2022-10-08T22:21:41.912Z,64.02
2022-10-08T22:24:10.186Z,63.81
2022-10-08T22:26:40.931Z,63.76
2022-10-08T22:29:09.598Z,63.65
2022-10-08T22:31:38.593Z,64.01
2022-10-08T22:34:06.967Z,64.69
2022-10-08T22:36:39.095Z,64.47
2022-10-08T22:39:09.422Z,64.50
2022-10-08T22:41:37.494Z,64.10
2022-10-08T22:44:05.822Z,64.46
2022-10-08T22:46:38.699Z,64.29
2022-10-08T22:49:09.644Z,63.62
2022-10-08T22:51:38.434Z,64.13
2022-10-08T22:54:09.964Z,64.49
2022-10-08T22:56:38.152Z,64.67
2022-10-08T22:59:06.190Z,64.35
2022-10-08T23:01:34.269Z,64.65
2022-10-08T23:04:02.299Z,64.32
2022-10-08T23:06:32.751Z,64.13
2022-10-08T23:09:02.899Z,64.27
2022-10-08T23:11:32.946Z,63.99
2022-10-08T23:14:01.954Z,63.79
2022-10-08T23:16:32.249Z,63.49
2022-10-08T23:19:03.753Z,63.95
2022-10-08T23:21:32.416Z,63.86
2022-10-08T23:24:01.150Z,63.59
2022-10-08T23:26:31.591Z,63.79
2022-10-08T23:29:03.207Z,64.11
2022-10-08T23:31:33.936Z,63.84
2022-10-08T23:34:05.132Z,63.70
2022-10-08T23:36:36.522Z,63.19
2022-10-08T23:39:05.786Z,63.54
2022-10-08T23:41:34.179Z,63.84
2022-10-08T23:44:03.599Z,63.86
2022-10-08T23:46:32.419Z,63.70
2022-10-08T23:49:00.985Z,63.24
2022-10-08T23:51:31.946Z,63.36
2022-10-08T23:54:01.278Z,63.09
2022-10-08T23:56:30.200Z,63.14
2022-10-08T23:58:58.416Z,62.63
